Time;durP1;ratioP1;P1;durP2;ratioP2;P2;SDS_P1;SDS_P2;PMS_P1;PMS_P2;Temp;Humidity;BMP_temperature;BMP_pressure;BME280_temperature;BME280_humidity;BME280_pressure;Samples;Min_cycle;Max_cycle;Signal;HPM_P1;HPM_P2
2022/11/07 00:01:08;;;;;;;1.40;1.10;;;;;;;13.15;60.75;97350.00;5052692;28;20437;-70
2022/11/07 00:03:33;;;;;;;1.50;1.40;;;;;;;13.43;59.96;97347.84;5046194;28;20429;-70
2022/11/07 00:05:58;;;;;;;2.27;1.50;;;;;;;13.39;60.58;97348.34;5054685;28;20421;-69
2022/11/07 00:08:30;;;;;;;1.10;1.00;;;;;;;13.34;60.89;97351.47;5051329;28;20317;-69
2022/11/07 00:10:57;;;;;;;1.40;1.30;;;;;;;13.56;60.20;97350.00;5053008;28;20186;-70
2022/11/07 00:13:23;;;;;;;1.60;1.20;;;;;;;13.43;60.65;97347.06;5054297;28;20448;-70
2022/11/07 00:15:48;;;;;;;1.67;1.20;;;;;;;13.28;61.37;97358.22;5056086;28;20414;-70
2022/11/07 00:18:14;;;;;;;1.50;1.30;;;;;;;13.42;60.98;97372.53;5051111;28;20268;-70
2022/11/07 00:20:39;;;;;;;2.20;1.50;;;;;;;13.47;60.96;97372.06;5051847;28;20213;-69
2022/11/07 00:23:04;;;;;;;1.10;1.00;;;;;;;13.40;61.37;97371.91;5050749;28;20229;-68
2022/11/07 00:25:30;;;;;;;1.30;1.13;;;;;;;13.60;60.79;97371.53;5051995;28;20183;-70
2022/11/07 00:27:55;;;;;;;1.30;1.20;;;;;;;13.65;60.85;97374.50;5051067;28;20174;-70
2022/11/07 00:30:21;;;;;;;1.63;1.40;;;;;;;13.69;60.18;97374.97;5051722;28;20956;-69
2022/11/07 00:32:46;;;;;;;1.47;1.20;;;;;;;13.73;60.49;97385.00;5057441;28;20643;-71
2022/11/07 00:35:12;;;;;;;1.53;1.10;;;;;;;13.74;60.76;97391.09;5054102;28;20193;-70
2022/11/07 00:37:37;;;;;;;1.60;1.23;;;;;;;13.78;60.49;97395.03;5054292;28;20252;-70
2022/11/07 00:40:03;;;;;;;1.40;1.30;;;;;;;13.78;60.61;97395.03;5051372;28;20226;-70
2022/11/07 00:42:29;;;;;;;1.10;1.00;;;;;;;13.76;60.70;97402.28;5042840;28;20179;-70
2022/11/07 00:44:54;;;;;;;1.40;1.03;;;;;;;13.72;60.96;97395.72;5043932;28;20179;-70
2022/11/07 00:47:19;;;;;;;1.47;1.37;;;;;;;13.71;61.11;97404.63;5040551;28;20260;-70
2022/11/07 00:49:45;;;;;;;2.60;1.30;;;;;;;13.72;60.99;97406.25;5047338;28;20278;-69
2022/11/07 00:52:10;;;;;;;1.40;1.30;;;;;;;13.72;61.22;97407.06;5040387;28;20220;-68
2022/11/07 00:54:36;;;;;;;1.27;1.03;;;;;;;13.70;61.37;97410.88;5047310;28;20210;-68
2022/11/07 00:57:01;;;;;;;1.30;1.10;;;;;;;13.69;61.30;97414.50;5043740;28;20267;-69
2022/11/07 00:59:26;;;;;;;4.03;1.20;;;;;;;13.72;60.92;97416.78;5039807;28;20603;-69
2022/11/07 01:01:52;;;;;;;1.30;1.17;;;;;;;13.62;61.65;97415.13;5046165;28;20582;-69
2022/11/07 01:07:02;;;;;;;5.10;1.00;;;;;;;13.71;61.12;97415.97;5042179;28;20662;-70
2022/11/07 01:09:27;;;;;;;1.10;1.00;;;;;;;13.69;61.01;97409.22;5040736;28;20439;-70
2022/11/07 01:11:52;;;;;;;1.43;1.30;;;;;;;13.62;61.16;97409.88;5036483;28;20180;-70
2022/11/07 01:14:20;;;;;;;1.33;1.13;;;;;;;13.58;61.66;97411.22;5047385;28;20188;-69
2022/11/07 01:16:46;;;;;;;1.27;1.10;;;;;;;13.55;61.37;97405.44;5039218;28;20238;-72
2022/11/07 01:19:12;;;;;;;1.43;1.00;;;;;;;13.53;61.67;97392.44;5042202;28;21038;-68
2022/11/07 01:21:39;;;;;;;2.60;1.00;;;;;;;13.57;61.51;97393.78;5042504;28;20418;-70
2022/11/07 01:24:06;;;;;;;1.63;1.27;;;;;;;13.61;61.69;97399.53;5034970;28;20659;-69
2022/11/07 01:26:31;;;;;;;3.10;1.17;;;;;;;13.61;62.02;97404.78;5040312;28;20425;-69
2022/11/07 01:28:57;;;;;;;1.50;1.17;;;;;;;13.61;61.42;97408.22;5040768;28;20473;-70
2022/11/07 01:31:22;;;;;;;3.87;2.00;;;;;;;13.60;61.71;97401.34;5050883;28;20727;-69
2022/11/07 01:33:47;;;;;;;1.70;1.60;;;;;;;13.57;61.80;97404.31;5050785;28;20222;-70
2022/11/07 01:36:15;;;;;;;2.60;2.40;;;;;;;13.58;61.95;97399.84;5052831;28;20257;-71
2022/11/07 01:38:43;;;;;;;7.93;2.00;;;;;;;13.61;61.67;97405.59;5049800;28;20199;-70
2022/11/07 01:41:20;;;;;;;3.33;1.37;;;;;;;13.59;61.66;97401.50;5053723;28;20449;-70
2022/11/07 01:43:51;;;;;;;2.70;1.60;;;;;;;13.57;61.82;97401.66;5048585;28;20454;-69
2022/11/07 01:46:17;;;;;;;3.80;1.53;;;;;;;13.57;61.60;97406.09;5050060;28;20782;-70
2022/11/07 01:48:47;;;;;;;1.40;1.10;;;;;;;13.55;61.69;97400.16;5049908;28;20471;-71
2022/11/07 01:51:14;;;;;;;2.60;1.40;;;;;;;13.58;61.65;97408.59;5049146;28;20666;-69
2022/11/07 01:53:40;;;;;;;1.70;1.50;;;;;;;13.55;61.49;97401.00;5049691;28;21098;-68
2022/11/07 01:56:09;;;;;;;1.37;1.13;;;;;;;13.54;61.78;97396.72;5042310;28;20458;-69
2022/11/07 01:58:34;;;;;;;2.40;1.50;;;;;;;13.49;61.78;97405.13;5032191;28;20457;-70
2022/11/07 02:01:00;;;;;;;1.30;1.20;;;;;;;13.55;61.81;97414.16;5050393;28;20471;-70
2022/11/07 02:03:25;;;;;;;2.37;1.60;;;;;;;13.56;61.71;97412.34;5050104;28;20697;-70
2022/11/07 02:05:54;;;;;;;3.63;1.80;;;;;;;13.56;61.46;97412.34;5049333;28;20182;-69
2022/11/07 02:08:21;;;;;;;1.50;1.40;;;;;;;13.55;61.24;97414.16;5047004;28;20554;-69
2022/11/07 02:10:46;;;;;;;1.30;1.20;;;;;;;13.58;61.35;97399.84;5032300;28;20446;-69
2022/11/07 02:13:17;;;;;;;4.40;1.40;;;;;;;13.58;61.64;97399.84;5049559;28;20476;-69
2022/11/07 02:15:42;;;;;;;2.17;1.30;;;;;;;13.60;61.54;97401.34;5054124;28;20225;-70
2022/11/07 02:18:08;;;;;;;1.40;1.27;;;;;;;13.65;61.62;97404.28;5049257;28;20450;-69
2022/11/07 02:20:33;;;;;;;2.17;1.50;;;;;;;13.67;61.75;97401.50;5050257;28;20198;-69
2022/11/07 02:23:04;;;;;;;3.40;1.70;;;;;;;13.60;62.07;97403.97;5050453;28;20171;-70
2022/11/07 02:25:29;;;;;;;1.93;1.10;;;;;;;13.63;61.82;97400.19;5049105;28;20293;-70
2022/11/07 02:27:57;;;;;;;3.53;1.60;;;;;;;13.67;61.87;97404.13;5048412;28;20972;-69
2022/11/07 02:30:26;;;;;;;1.87;1.17;;;;;;;13.70;62.06;97403.78;5048260;28;20218;-69
2022/11/07 02:32:53;;;;;;;2.40;1.37;;;;;;;13.75;61.73;97405.91;5048935;28;20452;-70
2022/11/07 02:35:35;;;;;;;2.00;1.50;;;;;;;13.71;61.91;97412.50;5045367;28;20461;-69
2022/11/07 02:38:02;;;;;;;1.37;1.27;;;;;;;13.74;61.97;97412.16;5050648;28;20454;-70
2022/11/07 02:40:29;;;;;;;1.67;1.57;;;;;;;13.76;61.68;97411.03;5049031;28;20441;-70
2022/11/07 02:42:55;;;;;;;7.47;1.57;;;;;;;13.75;61.81;97406.75;5049663;28;20433;-70
2022/11/07 02:45:27;;;;;;;2.70;1.67;;;;;;;13.77;61.94;97410.03;5048220;28;20430;-71
2022/11/07 02:47:52;;;;;;;4.10;1.70;;;;;;;13.76;61.90;97412.81;5048215;28;20499;-69
2022/11/07 02:50:18;;;;;;;1.53;1.30;;;;;;;13.77;61.71;97411.84;5049897;28;20446;-69
2022/11/07 02:52:43;;;;;;;1.43;1.33;;;;;;;13.78;61.75;97408.22;5050161;28;20176;-70
2022/11/07 02:55:10;;;;;;;1.50;1.40;;;;;;;13.75;61.84;97409.38;5048770;28;20693;-70
2022/11/07 02:57:35;;;;;;;3.80;1.43;;;;;;;13.75;61.73;97396.22;5047687;28;20190;-70
2022/11/07 03:00:01;;;;;;;1.40;1.30;;;;;;;13.79;61.61;97396.69;5050421;28;20818;-69
2022/11/07 03:02:26;;;;;;;1.70;1.57;;;;;;;13.72;61.91;97395.72;5043804;28;20207;-69
2022/11/07 03:04:52;;;;;;;1.73;1.30;;;;;;;13.77;62.22;97402.13;5041289;28;20214;-70
2022/11/07 03:07:18;;;;;;;2.23;1.50;;;;;;;13.79;62.00;97399.31;5044711;28;20241;-69
2022/11/07 03:09:43;;;;;;;1.70;1.40;;;;;;;13.77;61.91;97403.94;5054056;28;20245;-71
2022/11/07 03:12:09;;;;;;;4.37;1.60;;;;;;;13.75;61.91;97411.16;5049241;28;20192;-69
2022/11/07 03:14:34;;;;;;;2.60;1.30;;;;;;;13.73;62.13;97405.28;5060307;28;20556;-70
2022/11/07 03:17:00;;;;;;;2.70;1.53;;;;;;;13.77;61.93;97403.94;5057570;28;20274;-69
2022/11/07 03:19:25;;;;;;;1.27;1.17;;;;;;;13.75;62.21;97400.63;5053034;28;20285;-69
2022/11/07 03:21:51;;;;;;;1.87;1.50;;;;;;;13.74;62.19;97405.09;5052548;28;20209;-69
2022/11/07 03:24:16;;;;;;;3.30;1.60;;;;;;;13.82;62.05;97397.16;5052666;28;20549;-70
2022/11/07 03:26:42;;;;;;;3.10;1.20;;;;;;;13.78;61.85;97402.94;5050879;28;20238;-69
2022/11/07 03:29:07;;;;;;;1.97;1.43;;;;;;;13.91;61.67;97397.16;5046826;28;20706;-70
2022/11/07 03:31:33;;;;;;;1.60;1.50;;;;;;;13.91;61.56;97405.88;5053347;28;20179;-69
2022/11/07 03:33:58;;;;;;;3.10;1.40;;;;;;;13.96;61.45;97397.47;5054080;28;20209;-70
2022/11/07 03:36:24;;;;;;;2.40;1.50;;;;;;;13.93;61.38;97406.53;5055720;28;20199;-69
2022/11/07 03:38:49;;;;;;;1.80;1.50;;;;;;;13.92;61.41;97402.25;5052730;28;20199;-70
2022/11/07 03:41:16;;;;;;;4.20;1.43;;;;;;;13.88;61.26;97405.41;5059886;28;20259;-70
2022/11/07 03:43:44;;;;;;;2.70;1.30;;;;;;;13.93;61.53;97410.97;5053623;28;20182;-70
2022/11/07 03:46:10;;;;;;;1.90;1.30;;;;;;;13.91;61.24;97405.88;5052373;28;20491;-69
2022/11/07 03:48:36;;;;;;;2.50;1.30;;;;;;;13.87;61.23;97409.81;5051954;28;21019;-69
2022/11/07 03:51:01;;;;;;;1.37;1.27;;;;;;;13.88;61.31;97400.94;5053300;28;20536;-69
2022/11/07 03:53:26;;;;;;;2.23;1.57;;;;;;;13.91;61.24;97405.06;5049293;28;20258;-70
2022/11/07 03:55:54;;;;;;;1.50;1.40;;;;;;;13.88;61.35;97411.47;5049003;28;20270;-69
2022/11/07 03:58:19;;;;;;;1.33;1.00;;;;;;;13.93;61.07;97419.72;5053357;28;20605;-71
2022/11/07 04:00:44;;;;;;;2.30;1.60;;;;;;;13.88;61.37;97416.75;5052391;28;20611;-70
2022/11/07 04:03:10;;;;;;;4.97;1.30;;;;;;;13.87;61.36;97425.63;5052523;28;20269;-69
2022/11/07 04:05:35;;;;;;;2.67;1.40;;;;;;;13.89;61.09;97421.03;5053423;28;20697;-69
2022/11/07 04:08:01;;;;;;;3.57;1.40;;;;;;;13.93;60.97;97422.34;5055772;28;20678;-69
2022/11/07 04:10:26;;;;;;;2.77;1.33;;;;;;;13.90;61.18;97425.31;5052480;28;20198;-70
2022/11/07 04:18:21;;;;;;;1.83;1.40;;;;;;;13.91;61.02;97434.03;5052568;28;20472;-70
2022/11/07 04:20:47;;;;;;;1.40;1.30;;;;;;;13.91;61.02;97432.22;5053568;28;20433;-70
2022/11/07 04:23:12;;;;;;;2.13;1.43;;;;;;;13.94;60.87;97431.06;5052802;28;20222;-70
2022/11/07 04:28:21;;;;;;;1.50;1.30;;;;;;;13.86;60.87;97445.06;5054743;28;20324;-70
2022/11/07 04:30:47;;;;;;;2.73;1.27;;;;;;;13.85;60.84;97448.72;5052951;28;20438;-69
2022/11/07 04:33:12;;;;;;;2.43;1.37;;;;;;;13.88;61.13;97437.81;5045529;28;20678;-69
2022/11/07 04:35:38;;;;;;;3.17;1.87;;;;;;;13.81;61.06;97432.41;5053444;28;20538;-70
2022/11/07 04:38:03;;;;;;;1.73;1.07;;;;;;;13.85;60.78;97439.97;5037787;28;20206;-70
2022/11/07 04:40:29;;;;;;;2.10;1.27;;;;;;;13.81;61.04;97442.13;5052931;28;20280;-69
2022/11/07 04:42:54;;;;;;;2.57;1.30;;;;;;;13.85;60.86;97438.19;5036777;28;20782;-71
2022/11/07 04:45:20;;;;;;;2.67;1.40;;;;;;;13.84;60.66;97444.44;5060531;28;20175;-68
2022/11/07 04:47:46;;;;;;;1.87;1.23;;;;;;;13.86;60.57;97439.78;5067980;28;20175;-69
2022/11/07 04:50:13;;;;;;;1.77;1.40;;;;;;;13.85;60.22;97442.59;5062603;28;20195;-70
2022/11/07 04:52:39;;;;;;;3.40;1.60;;;;;;;13.89;60.39;97442.09;5058365;28;20179;-70
2022/11/07 04:55:07;;;;;;;7.03;3.63;;;;;;;13.88;60.61;97448.34;5053848;28;20425;-69
2022/11/07 04:57:32;;;;;;;12.70;4.60;;;;;;;13.89;60.62;97444.75;5062577;28;20669;-71
2022/11/07 04:59:58;;;;;;;11.87;4.33;;;;;;;13.91;60.43;97448.03;5063549;28;20450;-71
2022/11/07 05:02:24;;;;;;;39.10;16.87;;;;;;;13.90;60.39;97454.28;5060029;28;20187;-71
2022/11/07 05:04:50;;;;;;;53.50;23.87;;;;;;;13.90;60.17;97453.47;5063626;28;20208;-71
2022/11/07 05:07:16;;;;;;;21.87;10.80;;;;;;;13.86;60.20;97452.16;5058079;28;20476;-71
2022/11/07 05:09:42;;;;;;;5.40;2.20;;;;;;;13.89;60.30;97442.09;5064178;28;20943;-71
2022/11/07 05:12:07;;;;;;;3.23;2.30;;;;;;;13.92;60.47;97441.78;5059141;28;20190;-69
2022/11/07 05:14:34;;;;;;;2.03;1.70;;;;;;;13.87;59.99;97446.72;5052168;28;20186;-70
2022/11/07 05:17:00;;;;;;;2.43;1.50;;;;;;;13.84;60.21;97449.69;5060467;28;20817;-69
2022/11/07 05:19:26;;;;;;;2.73;2.50;;;;;;;13.79;60.44;97449.38;5064637;28;20464;-69
2022/11/07 05:23:10;;;;;;;6.07;2.30;;;;;;;13.76;60.38;97440.00;5060481;28;21085;-70
2022/11/07 05:24:37;;;;;;;2.03;1.83;;;;;;;13.78;60.43;97445.09;5046942;28;20178;-70
2022/11/07 05:27:03;;;;;;;2.33;2.10;;;;;;;13.75;60.57;97453.31;5066350;28;20783;-68
2022/11/07 05:29:28;;;;;;;4.83;2.27;;;;;;;13.76;60.68;97457.59;5061201;28;20437;-69
2022/11/07 05:31:54;;;;;;;5.23;1.60;;;;;;;13.77;60.22;97456.59;5068842;28;20655;-70
2022/11/07 05:34:19;;;;;;;4.70;1.80;;;;;;;13.82;60.83;97454.31;5063517;28;20234;-70
2022/11/07 05:36:44;;;;;;;2.90;1.60;;;;;;;13.85;60.33;97456.63;5063125;28;20302;-70
2022/11/07 05:39:10;;;;;;;4.30;1.50;;;;;;;13.85;59.86;97461.88;5063146;28;20209;-69
2022/11/07 05:41:35;;;;;;;3.83;1.60;;;;;;;13.81;60.34;97468.47;5057871;28;20182;-70
2022/11/07 05:44:01;;;;;;;1.87;1.50;;;;;;;13.81;60.50;97471.91;5061332;28;20280;-69
2022/11/07 05:46:26;;;;;;;9.83;1.80;;;;;;;13.81;60.58;97468.47;5056576;28;20213;-69
2022/11/07 05:48:52;;;;;;;1.60;1.50;;;;;;;13.71;61.65;97465.19;5061445;28;20199;-70
2022/11/07 05:51:17;;;;;;;4.47;1.73;;;;;;;13.72;61.26;97462.38;5063331;28;20194;-68
2022/11/07 05:53:42;;;;;;;4.20;1.83;;;;;;;13.75;61.21;97471.75;5068978;28;20534;-70
2022/11/07 05:56:08;;;;;;;2.33;1.60;;;;;;;13.76;61.06;97465.50;5065308;28;20182;-69
2022/11/07 05:58:33;;;;;;;1.90;1.60;;;;;;;13.81;60.83;97473.75;5052761;28;20791;-70
2022/11/07 06:01:03;;;;;;;5.27;1.77;;;;;;;13.78;60.85;97477.53;5054427;28;20188;-71
2022/11/07 06:03:30;;;;;;;9.00;1.77;;;;;;;13.79;61.24;97486.25;5045867;28;20185;-71
2022/11/07 06:05:55;;;;;;;6.20;2.20;;;;;;;13.78;61.21;97481.97;5052312;28;20799;-71
2022/11/07 06:08:20;;;;;;;4.27;1.80;;;;;;;13.78;61.06;97479.34;5044875;28;20505;-71
2022/11/07 06:10:46;;;;;;;6.07;1.83;;;;;;;13.76;61.19;97476.03;5047195;28;20618;-70
2022/11/07 06:13:13;;;;;;;4.00;1.73;;;;;;;13.77;61.72;97475.06;5053095;28;20187;-70
2022/11/07 06:15:41;;;;;;;2.73;1.53;;;;;;;13.83;61.64;97461.22;5055474;28;20210;-71
2022/11/07 06:18:10;;;;;;;5.67;1.80;;;;;;;13.85;61.67;97464.53;5061961;28;20457;-70
2022/11/07 06:20:35;;;;;;;4.13;1.60;;;;;;;13.88;61.67;97466.81;5065541;28;20436;-70
2022/11/07 06:23:02;;;;;;;3.63;1.57;;;;;;;13.88;61.83;97471.25;5059120;28;20512;-70
2022/11/07 06:25:28;;;;;;;4.90;1.67;;;;;;;13.87;62.08;97483.59;5051721;28;20191;-70
2022/11/07 06:28:02;;;;;;;4.40;1.57;;;;;;;13.84;62.23;97473.41;5037245;28;20996;-71
2022/11/07 06:30:28;;;;;;;2.00;1.20;;;;;;;13.89;62.33;97478.19;5064944;28;20252;-71
2022/11/07 06:32:53;;;;;;;3.30;1.60;;;;;;;13.93;62.24;97477.69;5049263;28;20435;-72
2022/11/07 06:35:19;;;;;;;7.10;1.80;;;;;;;13.91;62.34;97479.66;5059524;28;20273;-72
2022/11/07 06:37:44;;;;;;;2.53;1.50;;;;;;;13.97;62.16;97478.16;5061559;28;20178;-73
2022/11/07 06:40:10;;;;;;;6.10;1.60;;;;;;;14.07;61.93;97477.97;5051220;28;20617;-71
2022/11/07 06:42:36;;;;;;;3.07;1.60;;;;;;;14.12;61.83;97480.91;5037984;28;20183;-71
2022/11/07 06:45:01;;;;;;;3.40;2.10;;;;;;;14.15;62.04;97475.31;5053497;28;20484;-71
2022/11/07 06:47:27;;;;;;;3.20;1.43;;;;;;;14.17;61.97;97475.97;5068068;28;20423;-71
2022/11/07 06:49:52;;;;;;;6.07;1.73;;;;;;;14.05;62.04;97474.69;5054035;28;20245;-72
2022/11/07 06:52:18;;;;;;;3.73;1.80;;;;;;;14.07;62.30;97480.63;5040275;28;20180;-71
2022/11/07 06:54:43;;;;;;;3.20;1.40;;;;;;;14.16;61.92;97474.34;5060207;28;20373;-71
2022/11/07 06:57:09;;;;;;;5.97;1.90;;;;;;;14.19;61.92;97476.63;5050173;28;20559;-71
2022/11/07 06:59:34;;;;;;;5.07;1.63;;;;;;;14.13;62.04;97477.28;5066074;28;20206;-71
2022/11/07 07:02:00;;;;;;;5.20;1.60;;;;;;;14.25;61.84;97481.22;5048463;28;20693;-71
2022/11/07 07:04:25;;;;;;;5.23;1.60;;;;;;;14.19;61.68;97486.34;5046268;28;20179;-71
2022/11/07 07:06:51;;;;;;;4.50;1.93;;;;;;;14.25;61.80;97489.13;5051243;28;20269;-71
2022/11/07 07:09:16;;;;;;;6.70;1.70;;;;;;;14.33;61.77;97492.75;5040136;28;20203;-73
2022/11/07 07:11:43;;;;;;;4.77;1.67;;;;;;;14.34;61.53;97489.94;5036831;28;20807;-72
2022/11/07 07:14:09;;;;;;;5.10;2.03;;;;;;;14.33;61.41;97498.03;5042033;28;20187;-72
2022/11/07 07:16:34;;;;;;;3.57;1.93;;;;;;;14.36;61.43;97503.78;5041774;28;20949;-72
2022/11/07 07:19:00;;;;;;;5.50;1.83;;;;;;;14.44;61.38;97513.47;5037526;28;20211;-71
2022/11/07 07:21:25;;;;;;;5.80;1.60;;;;;;;14.41;61.58;97512.00;5044309;28;20181;-72
2022/11/07 07:23:51;;;;;;;3.57;1.67;;;;;;;14.50;61.03;97509.34;5039203;28;20179;-72
2022/11/07 07:26:17;;;;;;;3.30;1.67;;;;;;;14.58;61.18;97518.06;5041149;28;20179;-71
2022/11/07 07:28:43;;;;;;;2.33;1.50;;;;;;;14.62;61.06;97523.00;5036559;28;20480;-72
2022/11/07 07:31:21;;;;;;;4.30;1.63;;;;;;;14.59;60.78;97526.78;5036128;28;20191;-71
2022/11/07 07:33:47;;;;;;;2.90;1.53;;;;;;;14.67;61.13;97523.28;5038495;28;20830;-72
2022/11/07 07:36:13;;;;;;;4.07;1.60;;;;;;;14.71;60.30;97532.53;5044446;28;20509;-74
2022/11/07 07:38:38;;;;;;;5.80;1.83;;;;;;;14.73;60.39;97530.56;5031931;28;20541;-72
2022/11/07 07:41:05;;;;;;;5.63;2.00;;;;;;;14.78;60.30;97524.78;5038172;28;20195;-72
2022/11/07 07:43:30;;;;;;;7.50;1.50;;;;;;;14.85;60.18;97517.81;5044538;28;20186;-72
2022/11/07 07:46:00;;;;;;;5.03;1.70;;;;;;;14.87;59.98;97527.19;5032025;28;20797;-72
2022/11/07 07:48:26;;;;;;;4.23;1.90;;;;;;;14.96;59.64;97530.63;5032554;28;20188;-71
2022/11/07 07:50:52;;;;;;;5.47;2.87;;;;;;;15.01;59.83;97524.81;5032925;28;20445;-73
2022/11/07 07:53:17;;;;;;;7.30;1.90;;;;;;;15.00;59.80;97520.53;5040900;28;20460;-73
2022/11/07 07:55:43;;;;;;;7.90;1.93;;;;;;;15.19;59.54;97520.09;5031800;28;20597;-72
2022/11/07 07:58:09;;;;;;;3.60;1.70;;;;;;;15.22;59.33;97529.50;5040004;28;20204;-72
2022/11/07 08:00:35;;;;;;;7.27;2.30;;;;;;;15.35;59.09;97521.00;5032750;28;20257;-72
2022/11/07 08:03:08;;;;;;;3.53;2.23;;;;;;;15.45;58.84;97518.13;5033065;28;20422;-72
2022/11/07 08:05:36;;;;;;;7.93;2.30;;;;;;;15.59;58.60;97525.28;5031786;28;20183;-71
2022/11/07 08:08:03;;;;;;;6.93;2.10;;;;;;;15.58;58.55;97528.13;5034183;28;21245;-72
2022/11/07 08:10:28;;;;;;;8.23;1.77;;;;;;;15.58;58.06;97523.63;5060457;28;20472;-72
2022/11/07 08:12:54;;;;;;;10.63;2.30;;;;;;;15.58;58.00;97517.56;5043601;28;21094;-72
2022/11/07 08:15:20;;;;;;;3.53;1.70;;;;;;;15.57;58.19;97523.81;5053784;28;20270;-71
2022/11/07 08:17:45;;;;;;;9.20;1.97;;;;;;;15.52;58.45;97524.34;5034596;28;20414;-72
2022/11/07 08:20:13;;;;;;;8.40;1.80;;;;;;;15.51;58.48;97523.53;5052023;28;20202;-73
2022/11/07 08:22:38;;;;;;;5.73;1.83;;;;;;;15.46;58.30;97528.53;5047504;28;20263;-71
2022/11/07 08:25:05;;;;;;;7.40;1.73;;;;;;;15.40;58.48;97531.84;5043442;28;20525;-72
2022/11/07 08:27:31;;;;;;;5.90;1.60;;;;;;;15.46;58.03;97536.44;5035015;28;20259;-72
2022/11/07 08:29:56;;;;;;;10.50;1.60;;;;;;;15.46;58.17;97525.88;5037111;28;20631;-71
2022/11/07 08:32:23;;;;;;;3.33;1.73;;;;;;;15.37;57.88;97532.22;5036721;28;20179;-72
2022/11/07 08:34:48;;;;;;;6.53;2.00;;;;;;;15.40;57.90;97533.69;5036478;28;20285;-71
2022/11/07 08:37:14;;;;;;;5.63;1.90;;;;;;;15.35;57.67;97539.50;5039195;28;20514;-70
2022/11/07 08:39:39;;;;;;;4.33;1.80;;;;;;;15.17;57.92;97529.22;5037676;28;20269;-72
2022/11/07 08:42:05;;;;;;;2.73;1.47;;;;;;;15.25;57.90;97528.34;5050406;28;20183;-72
2022/11/07 08:44:33;;;;;;;6.57;2.10;;;;;;;15.22;57.50;97533.97;5057384;28;20186;-71
2022/11/07 08:46:59;;;;;;;5.80;1.70;;;;;;;15.36;57.49;97533.22;5050777;28;20180;-72
2022/11/07 08:49:25;;;;;;;8.57;2.07;;;;;;;15.43;57.42;97531.50;5046184;28;20929;-71
2022/11/07 08:51:50;;;;;;;6.00;1.67;;;;;;;15.48;57.13;97531.81;5058375;28;20546;-70
2022/11/07 08:54:15;;;;;;;4.30;1.90;;;;;;;15.52;57.14;97535.72;5045512;28;20259;-72
2022/11/07 08:56:41;;;;;;;2.53;1.30;;;;;;;15.53;56.93;97531.28;5049882;28;20191;-71
2022/11/07 08:59:08;;;;;;;6.60;1.90;;;;;;;15.58;56.88;97528.91;5049587;28;20216;-71
2022/11/07 09:01:34;;;;;;;9.37;2.20;;;;;;;15.66;57.58;97531.53;5057419;28;20171;-71
2022/11/07 09:03:59;;;;;;;9.37;1.70;;;;;;;15.65;57.30;97526.41;5056189;28;20440;-69
2022/11/07 09:06:25;;;;;;;7.97;1.73;;;;;;;15.78;57.25;97526.63;5043927;28;20272;-71
2022/11/07 09:08:50;;;;;;;4.83;1.50;;;;;;;15.82;57.38;97529.72;5046957;28;20178;-70
2022/11/07 09:11:17;;;;;;;5.20;1.77;;;;;;;16.01;57.33;97539.00;5047906;28;20183;-70
2022/11/07 09:13:43;;;;;;;6.73;1.57;;;;;;;16.06;57.07;97541.16;5067908;28;20649;-71
2022/11/07 09:16:09;;;;;;;7.13;2.10;;;;;;;16.04;56.65;97543.94;5048631;28;20431;-71
2022/11/07 09:18:35;;;;;;;3.70;1.90;;;;;;;16.11;57.04;97539.59;5069596;28;20460;-70
2022/11/07 09:21:00;;;;;;;3.60;1.60;;;;;;;16.08;56.95;97539.13;5063498;28;20472;-70
2022/11/07 09:23:26;;;;;;;5.17;1.77;;;;;;;16.04;56.60;97540.50;5057770;28;20189;-71
2022/11/07 09:25:52;;;;;;;3.73;1.83;;;;;;;15.98;56.46;97542.03;5066090;28;20210;-70
2022/11/07 09:28:17;;;;;;;8.43;2.00;;;;;;;16.20;56.39;97536.88;5053791;28;20426;-71
2022/11/07 09:30:43;;;;;;;4.13;1.67;;;;;;;16.47;55.89;97545.22;5067502;28;20194;-71
2022/11/07 09:33:08;;;;;;;4.57;1.57;;;;;;;16.66;55.49;97544.66;5054954;28;20197;-71
2022/11/07 09:35:34;;;;;;;9.07;1.70;;;;;;;16.76;54.27;97549.66;5070589;28;20182;-71
2022/11/07 09:37:59;;;;;;;4.97;2.07;;;;;;;16.82;54.30;97564.00;5063675;28;20206;-71
2022/11/07 09:40:40;;;;;;;5.70;1.57;;;;;;;16.79;54.08;97559.06;5061260;28;20310;-71
2022/11/07 09:43:22;;;;;;;9.10;1.60;;;;;;;16.73;53.55;97566.75;5061398;28;20904;-71
2022/11/07 09:46:13;;;;;;;5.10;1.60;;;;;;;16.69;53.90;97568.09;5062266;28;20420;-71
2022/11/07 09:49:01;;;;;;;4.80;1.73;;;;;;;16.69;53.69;97565.47;5065754;28;20409;-72
2022/11/07 09:51:33;;;;;;;7.03;1.50;;;;;;;16.50;53.11;97566.00;5062868;28;20561;-71
2022/11/07 09:54:06;;;;;;;7.50;1.93;;;;;;;16.62;53.19;97556.63;5055674;28;20579;-72
2022/11/07 09:56:32;;;;;;;5.50;1.60;;;;;;;16.56;53.57;97554.69;5051627;28;20422;-72
2022/11/07 09:59:00;;;;;;;6.30;2.27;;;;;;;16.61;53.56;97562.06;5059093;28;20554;-72
2022/11/07 10:01:27;;;;;;;7.50;1.97;;;;;;;16.63;53.91;97568.00;5061481;28;20425;-71
2022/11/07 10:03:52;;;;;;;7.70;2.13;;;;;;;16.60;54.29;97569.22;5057877;28;20427;-70
2022/11/07 10:06:32;;;;;;;4.83;2.07;;;;;;;16.58;54.88;97561.44;5066359;28;20433;-71
2022/11/07 10:09:10;;;;;;;3.50;1.90;;;;;;;16.50;54.69;97563.38;5061050;28;20204;-71
2022/11/07 10:12:03;;;;;;;3.90;1.70;;;;;;;16.54;54.81;97554.03;5056753;28;20435;-71
2022/11/07 10:15:02;;;;;;;14.87;1.90;;;;;;;16.51;54.92;97564.97;5066115;28;20420;-71
2022/11/07 10:17:33;;;;;;;6.30;2.10;;;;;;;16.50;54.94;97558.06;5066696;28;20440;-72
2022/11/07 10:20:31;;;;;;;7.73;1.93;;;;;;;16.28;55.22;97565.88;5069206;28;20830;-71
2022/11/07 10:23:22;;;;;;;7.40;1.93;;;;;;;16.34;55.46;97565.16;5051902;28;20874;-71
2022/11/07 10:26:00;;;;;;;8.73;1.60;;;;;;;16.23;55.51;97562.97;5059316;28;20425;-71
2022/11/07 10:28:26;;;;;;;4.60;1.83;;;;;;;16.29;55.18;97551.66;5064057;28;20864;-71
2022/11/07 10:30:53;;;;;;;7.53;2.00;;;;;;;16.25;55.60;97558.31;5041574;28;20872;-71
2022/11/07 10:33:57;;;;;;;4.80;1.97;;;;;;;16.24;55.48;97554.84;5064840;28;20445;-71
2022/11/07 10:36:25;;;;;;;5.30;2.43;;;;;;;16.35;55.35;97550.94;5062047;28;20527;-70
2022/11/07 10:38:51;;;;;;;9.70;2.10;;;;;;;16.53;55.13;97555.88;5068522;28;20460;-71
2022/11/07 10:41:24;;;;;;;5.00;2.10;;;;;;;16.50;54.53;97547.50;5059767;28;20433;-72
2022/11/07 10:44:06;;;;;;;8.23;2.37;;;;;;;16.57;54.42;97546.56;5063821;28;20412;-71
2022/11/07 10:46:45;;;;;;;4.67;1.70;;;;;;;16.73;54.28;97548.22;5065234;28;20420;-72
2022/11/07 10:49:20;;;;;;;9.33;1.60;;;;;;;16.80;53.89;97535.06;5066721;28;20497;-70
2022/11/07 10:52:11;;;;;;;2.70;1.43;;;;;;;16.77;53.43;97542.53;5064522;28;20412;-72
2022/11/07 10:54:39;;;;;;;6.27;1.40;;;;;;;16.94;53.34;97524.66;5059180;28;20452;-71
2022/11/07 10:57:11;;;;;;;4.17;1.77;;;;;;;17.00;53.01;97526.59;5061774;28;20437;-70
2022/11/07 10:59:38;;;;;;;3.33;1.60;;;;;;;17.18;52.63;97523.53;5069170;28;20479;-70
2022/11/07 11:02:20;;;;;;;3.80;1.77;;;;;;;17.31;52.42;97525.50;5063124;28;20943;-70
2022/11/07 11:04:55;;;;;;;4.43;1.50;;;;;;;17.37;51.75;97524.75;5069884;28;20789;-72
2022/11/07 11:07:34;;;;;;;5.07;1.90;;;;;;;17.15;52.00;97522.09;5062901;28;20425;-72
2022/11/07 11:10:00;;;;;;;2.80;1.50;;;;;;;17.34;52.07;97523.31;5062688;28;20436;-71
2022/11/07 11:12:28;;;;;;;6.40;1.70;;;;;;;17.52;51.94;97516.72;5057513;28;20915;-71
2022/11/07 11:15:05;;;;;;;4.53;1.60;;;;;;;17.53;51.89;97526.31;5065606;28;20545;-71
2022/11/07 11:17:31;;;;;;;7.07;1.80;;;;;;;17.73;51.78;97523.06;5065906;28;20462;-71
2022/11/07 11:19:56;;;;;;;3.87;1.83;;;;;;;17.68;51.25;97517.50;5069894;28;20464;-71
2022/11/07 11:22:23;;;;;;;3.63;1.80;;;;;;;17.90;50.83;97518.31;5057104;28;20430;-72
2022/11/07 11:25:10;;;;;;;3.47;1.53;;;;;;;18.20;50.05;97529.59;5064472;28;20178;-70
2022/11/07 11:27:37;;;;;;;5.97;2.07;;;;;;;18.54;50.27;97535.09;5064607;28;21085;-72
2022/11/07 11:30:06;;;;;;;4.30;1.20;;;;;;;18.73;49.31;97528.25;5057349;28;20449;-72
2022/11/07 11:32:55;;;;;;;4.03;1.30;;;;;;;18.86;48.17;97528.34;5059088;28;20433;-71
2022/11/07 11:35:35;;;;;;;4.67;1.50;;;;;;;18.97;47.84;97523.50;5071221;28;20436;-72
2022/11/07 11:38:07;;;;;;;6.00;1.03;;;;;;;18.96;47.11;97524.50;5064553;28;20457;-72
2022/11/07 11:40:36;;;;;;;4.50;1.50;;;;;;;19.00;46.86;97515.94;5046611;28;20436;-71
2022/11/07 11:43:12;;;;;;;2.73;1.20;;;;;;;18.94;46.54;97519.41;5063560;28;20430;-71
2022/11/07 11:45:38;;;;;;;3.57;1.17;;;;;;;19.05;46.73;97519.84;5050510;28;20425;-71
2022/11/07 11:48:17;;;;;;;6.60;1.50;;;;;;;19.00;46.39;97523.09;5067264;28;20460;-70